sensor_id;sensor_type;location;lat;lon;timestamp;P1;durP1;ratioP1;P2;durP2;ratioP2
67053;SDS011;53960;51.826;5.850;2022-09-12T00:00:04;14.83;;;8.10;;
67053;SDS011;53960;51.826;5.850;2022-09-12T00:02:31;15.00;;;8.43;;
67053;SDS011;53960;51.826;5.850;2022-09-12T00:04:56;14.30;;;8.37;;
67053;SDS011;53960;51.826;5.850;2022-09-12T00:07:21;14.83;;;8.30;;
67053;SDS011;53960;51.826;5.850;2022-09-12T00:09:46;15.27;;;8.00;;
67053;SDS011;53960;51.826;5.850;2022-09-12T00:12:12;14.63;;;8.20;;
67053;SDS011;53960;51.826;5.850;2022-09-12T00:14:37;15.73;;;9.07;;
67053;SDS011;53960;51.826;5.850;2022-09-12T00:17:02;15.20;;;9.03;;
67053;SDS011;53960;51.826;5.850;2022-09-12T00:19:28;14.48;;;8.60;;
67053;SDS011;53960;51.826;5.850;2022-09-12T00:21:54;16.00;;;9.10;;
67053;SDS011;53960;51.826;5.850;2022-09-12T00:24:20;15.98;;;8.70;;
67053;SDS011;53960;51.826;5.850;2022-09-12T00:26:45;15.50;;;8.70;;
67053;SDS011;53960;51.826;5.850;2022-09-12T00:29:15;14.80;;;8.33;;
67053;SDS011;53960;51.826;5.850;2022-09-12T00:31:42;16.73;;;9.27;;
67053;SDS011;53960;51.826;5.850;2022-09-12T00:34:07;17.17;;;9.43;;
67053;SDS011;53960;51.826;5.850;2022-09-12T00:36:34;17.23;;;9.32;;
67053;SDS011;53960;51.826;5.850;2022-09-12T00:38:59;17.58;;;9.55;;
67053;SDS011;53960;51.826;5.850;2022-09-12T00:41:28;17.03;;;9.77;;
67053;SDS011;53960;51.826;5.850;2022-09-12T00:43:57;18.75;;;10.23;;
67053;SDS011;53960;51.826;5.850;2022-09-12T00:49:38;17.60;;;10.47;;
67053;SDS011;53960;51.826;5.850;2022-09-12T00:52:15;17.17;;;10.02;;
67053;SDS011;53960;51.826;5.850;2022-09-12T00:54:58;21.20;;;10.85;;
67053;SDS011;53960;51.826;5.850;2022-09-12T00:57:27;19.38;;;10.27;;
67053;SDS011;53960;51.826;5.850;2022-09-12T01:00:05;19.60;;;10.98;;
67053;SDS011;53960;51.826;5.850;2022-09-12T01:02:38;18.37;;;10.63;;
67053;SDS011;53960;51.826;5.850;2022-09-12T01:05:04;21.00;;;10.55;;
67053;SDS011;53960;51.826;5.850;2022-09-12T01:07:30;19.20;;;10.47;;
67053;SDS011;53960;51.826;5.850;2022-09-12T01:09:58;18.52;;;10.25;;
67053;SDS011;53960;51.826;5.850;2022-09-12T01:12:24;20.93;;;11.33;;
67053;SDS011;53960;51.826;5.850;2022-09-12T01:14:49;19.05;;;10.95;;
67053;SDS011;53960;51.826;5.850;2022-09-12T01:17:15;19.70;;;10.77;;
67053;SDS011;53960;51.826;5.850;2022-09-12T01:20:05;19.80;;;11.00;;
67053;SDS011;53960;51.826;5.850;2022-09-12T01:28:28;21.02;;;10.85;;
67053;SDS011;53960;51.826;5.850;2022-09-12T01:31:23;21.10;;;11.10;;
67053;SDS011;53960;51.826;5.850;2022-09-12T01:33:55;20.38;;;11.10;;
67053;SDS011;53960;51.826;5.850;2022-09-12T01:39:11;21.63;;;11.25;;
67053;SDS011;53960;51.826;5.850;2022-09-12T01:44:45;20.15;;;10.52;;
67053;SDS011;53960;51.826;5.850;2022-09-12T01:50:17;21.80;;;11.67;;
67053;SDS011;53960;51.826;5.850;2022-09-12T01:55:30;21.15;;;12.20;;
67053;SDS011;53960;51.826;5.850;2022-09-12T01:58:04;21.10;;;11.57;;
67053;SDS011;53960;51.826;5.850;2022-09-12T02:03:50;19.87;;;11.00;;
67053;SDS011;53960;51.826;5.850;2022-09-12T02:06:27;23.88;;;12.18;;
67053;SDS011;53960;51.826;5.850;2022-09-12T02:08:59;21.73;;;12.15;;
67053;SDS011;53960;51.826;5.850;2022-09-12T02:11:30;23.48;;;12.95;;
67053;SDS011;53960;51.826;5.850;2022-09-12T02:16:35;24.23;;;12.70;;
67053;SDS011;53960;51.826;5.850;2022-09-12T02:19:21;23.50;;;12.45;;
67053;SDS011;53960;51.826;5.850;2022-09-12T02:21:51;23.27;;;12.93;;
67053;SDS011;53960;51.826;5.850;2022-09-12T02:24:19;25.92;;;13.40;;
67053;SDS011;53960;51.826;5.850;2022-09-12T02:26:49;24.95;;;14.32;;
67053;SDS011;53960;51.826;5.850;2022-09-12T02:29:18;27.30;;;13.70;;
67053;SDS011;53960;51.826;5.850;2022-09-12T02:31:45;28.65;;;13.98;;
67053;SDS011;53960;51.826;5.850;2022-09-12T02:39:46;25.85;;;13.80;;
67053;SDS011;53960;51.826;5.850;2022-09-12T02:42:11;27.00;;;13.97;;
67053;SDS011;53960;51.826;5.850;2022-09-12T02:44:37;28.45;;;15.05;;
67053;SDS011;53960;51.826;5.850;2022-09-12T02:47:04;31.23;;;15.70;;
67053;SDS011;53960;51.826;5.850;2022-09-12T02:49:33;30.70;;;15.18;;
67053;SDS011;53960;51.826;5.850;2022-09-12T02:51:59;29.43;;;15.60;;
67053;SDS011;53960;51.826;5.850;2022-09-12T02:54:25;31.38;;;16.70;;
67053;SDS011;53960;51.826;5.850;2022-09-12T02:56:52;29.60;;;15.98;;
67053;SDS011;53960;51.826;5.850;2022-09-12T02:59:17;28.83;;;15.87;;
67053;SDS011;53960;51.826;5.850;2022-09-12T03:07:34;31.65;;;16.05;;
67053;SDS011;53960;51.826;5.850;2022-09-12T03:13:07;30.45;;;16.65;;
67053;SDS011;53960;51.826;5.850;2022-09-12T03:21:03;30.08;;;16.52;;
67053;SDS011;53960;51.826;5.850;2022-09-12T03:26:37;30.15;;;16.45;;
67053;SDS011;53960;51.826;5.850;2022-09-12T03:29:07;29.17;;;15.30;;
67053;SDS011;53960;51.826;5.850;2022-09-12T03:31:34;31.85;;;16.30;;
67053;SDS011;53960;51.826;5.850;2022-09-12T03:34:00;30.87;;;16.80;;
67053;SDS011;53960;51.826;5.850;2022-09-12T03:36:26;32.83;;;17.60;;
67053;SDS011;53960;51.826;5.850;2022-09-12T03:38:52;31.90;;;16.23;;
67053;SDS011;53960;51.826;5.850;2022-09-12T03:41:18;34.03;;;17.40;;
67053;SDS011;53960;51.826;5.850;2022-09-12T03:43:44;32.88;;;16.70;;
67053;SDS011;53960;51.826;5.850;2022-09-12T03:46:10;30.50;;;16.17;;
67053;SDS011;53960;51.826;5.850;2022-09-12T03:48:35;33.53;;;18.02;;
67053;SDS011;53960;51.826;5.850;2022-09-12T03:51:02;37.00;;;18.33;;
67053;SDS011;53960;51.826;5.850;2022-09-12T03:53:29;37.15;;;18.05;;
67053;SDS011;53960;51.826;5.850;2022-09-12T03:55:55;39.25;;;19.67;;
67053;SDS011;53960;51.826;5.850;2022-09-12T03:58:21;43.75;;;19.75;;
67053;SDS011;53960;51.826;5.850;2022-09-12T04:00:46;45.17;;;21.20;;
67053;SDS011;53960;51.826;5.850;2022-09-12T04:03:12;44.57;;;22.23;;
67053;SDS011;53960;51.826;5.850;2022-09-12T04:05:37;48.27;;;22.57;;
67053;SDS011;53960;51.826;5.850;2022-09-12T04:08:03;45.83;;;21.37;;
67053;SDS011;53960;51.826;5.850;2022-09-12T04:10:28;48.20;;;21.87;;
67053;SDS011;53960;51.826;5.850;2022-09-12T04:12:53;46.10;;;22.77;;
67053;SDS011;53960;51.826;5.850;2022-09-12T04:15:19;48.63;;;22.27;;
67053;SDS011;53960;51.826;5.850;2022-09-12T04:17:44;50.23;;;23.00;;
67053;SDS011;53960;51.826;5.850;2022-09-12T04:20:09;51.60;;;23.27;;
67053;SDS011;53960;51.826;5.850;2022-09-12T04:22:35;49.03;;;23.03;;
67053;SDS011;53960;51.826;5.850;2022-09-12T04:25:00;52.17;;;23.23;;
67053;SDS011;53960;51.826;5.850;2022-09-12T04:27:26;53.40;;;23.73;;
67053;SDS011;53960;51.826;5.850;2022-09-12T04:29:51;48.65;;;23.67;;
67053;SDS011;53960;51.826;5.850;2022-09-12T04:32:18;52.67;;;23.90;;
67053;SDS011;53960;51.826;5.850;2022-09-12T04:34:44;53.20;;;23.40;;
67053;SDS011;53960;51.826;5.850;2022-09-12T04:37:10;56.15;;;24.25;;
67053;SDS011;53960;51.826;5.850;2022-09-12T04:39:36;55.27;;;24.80;;
67053;SDS011;53960;51.826;5.850;2022-09-12T04:42:01;58.23;;;25.77;;
67053;SDS011;53960;51.826;5.850;2022-09-12T04:44:28;58.78;;;25.42;;
67053;SDS011;53960;51.826;5.850;2022-09-12T04:46:53;56.50;;;24.50;;
67053;SDS011;53960;51.826;5.850;2022-09-12T04:49:18;55.90;;;25.07;;
67053;SDS011;53960;51.826;5.850;2022-09-12T04:51:44;58.97;;;25.40;;
67053;SDS011;53960;51.826;5.850;2022-09-12T04:54:12;53.65;;;26.60;;
67053;SDS011;53960;51.826;5.850;2022-09-12T04:56:42;56.97;;;24.90;;
67053;SDS011;53960;51.826;5.850;2022-09-12T04:59:10;53.07;;;24.53;;
67053;SDS011;53960;51.826;5.850;2022-09-12T05:01:36;54.15;;;23.27;;
67053;SDS011;53960;51.826;5.850;2022-09-12T05:04:02;59.53;;;25.92;;
67053;SDS011;53960;51.826;5.850;2022-09-12T05:06:31;57.23;;;24.27;;
67053;SDS011;53960;51.826;5.850;2022-09-12T05:08:58;56.67;;;25.33;;
67053;SDS011;53960;51.826;5.850;2022-09-12T05:11:27;52.40;;;24.80;;
67053;SDS011;53960;51.826;5.850;2022-09-12T05:13:54;54.25;;;25.42;;
67053;SDS011;53960;51.826;5.850;2022-09-12T05:16:19;53.13;;;24.63;;
67053;SDS011;53960;51.826;5.850;2022-09-12T05:18:45;60.07;;;26.00;;
67053;SDS011;53960;51.826;5.850;2022-09-12T05:21:12;60.20;;;26.67;;
67053;SDS011;53960;51.826;5.850;2022-09-12T05:23:39;52.17;;;24.90;;
67053;SDS011;53960;51.826;5.850;2022-09-12T05:26:05;65.72;;;27.17;;
67053;SDS011;53960;51.826;5.850;2022-09-12T05:28:32;64.55;;;27.02;;
67053;SDS011;53960;51.826;5.850;2022-09-12T05:33:33;64.00;;;27.45;;
67053;SDS011;53960;51.826;5.850;2022-09-12T05:36:00;62.40;;;26.40;;
67053;SDS011;53960;51.826;5.850;2022-09-12T05:38:26;57.05;;;26.27;;
67053;SDS011;53960;51.826;5.850;2022-09-12T05:40:53;56.80;;;24.88;;
67053;SDS011;53960;51.826;5.850;2022-09-12T05:43:27;50.77;;;23.47;;
67053;SDS011;53960;51.826;5.850;2022-09-12T05:45:58;51.50;;;24.05;;
67053;SDS011;53960;51.826;5.850;2022-09-12T05:48:28;56.45;;;25.85;;
67053;SDS011;53960;51.826;5.850;2022-09-12T05:51:01;54.27;;;23.93;;
67053;SDS011;53960;51.826;5.850;2022-09-12T05:53:28;52.65;;;24.55;;
67053;SDS011;53960;51.826;5.850;2022-09-12T05:56:05;56.47;;;25.58;;
67053;SDS011;53960;51.826;5.850;2022-09-12T05:58:35;57.17;;;25.97;;
67053;SDS011;53960;51.826;5.850;2022-09-12T06:01:06;61.42;;;26.00;;
67053;SDS011;53960;51.826;5.850;2022-09-12T06:03:40;60.40;;;25.73;;
67053;SDS011;53960;51.826;5.850;2022-09-12T06:06:08;61.13;;;25.52;;
67053;SDS011;53960;51.826;5.850;2022-09-12T06:08:37;64.97;;;28.17;;
67053;SDS011;53960;51.826;5.850;2022-09-12T06:11:03;59.33;;;26.43;;
67053;SDS011;53960;51.826;5.850;2022-09-12T06:13:30;60.28;;;26.58;;
67053;SDS011;53960;51.826;5.850;2022-09-12T06:16:07;58.43;;;26.80;;
67053;SDS011;53960;51.826;5.850;2022-09-12T06:18:34;68.10;;;27.85;;
67053;SDS011;53960;51.826;5.850;2022-09-12T06:21:07;59.13;;;24.95;;
67053;SDS011;53960;51.826;5.850;2022-09-12T06:23:35;60.95;;;28.15;;
67053;SDS011;53960;51.826;5.850;2022-09-12T06:26:01;58.33;;;27.13;;
67053;SDS011;53960;51.826;5.850;2022-09-12T06:28:28;57.22;;;26.00;;
67053;SDS011;53960;51.826;5.850;2022-09-12T06:30:53;57.00;;;27.77;;
67053;SDS011;53960;51.826;5.850;2022-09-12T06:33:26;56.53;;;26.03;;
67053;SDS011;53960;51.826;5.850;2022-09-12T06:35:51;63.43;;;26.57;;
67053;SDS011;53960;51.826;5.850;2022-09-12T06:38:16;59.10;;;25.80;;
67053;SDS011;53960;51.826;5.850;2022-09-12T06:40:42;59.80;;;26.30;;
67053;SDS011;53960;51.826;5.850;2022-09-12T06:43:09;55.95;;;26.73;;
67053;SDS011;53960;51.826;5.850;2022-09-12T06:45:36;59.08;;;26.00;;
67053;SDS011;53960;51.826;5.850;2022-09-12T06:48:01;57.13;;;25.63;;
67053;SDS011;53960;51.826;5.850;2022-09-12T06:50:26;60.00;;;26.43;;
67053;SDS011;53960;51.826;5.850;2022-09-12T06:52:52;57.30;;;27.43;;
67053;SDS011;53960;51.826;5.850;2022-09-12T06:55:17;58.90;;;26.53;;
67053;SDS011;53960;51.826;5.850;2022-09-12T06:57:43;57.40;;;26.40;;
67053;SDS011;53960;51.826;5.850;2022-09-12T07:00:08;55.37;;;26.17;;
67053;SDS011;53960;51.826;5.850;2022-09-12T07:02:34;59.50;;;25.77;;
67053;SDS011;53960;51.826;5.850;2022-09-12T07:04:59;58.65;;;26.52;;
67053;SDS011;53960;51.826;5.850;2022-09-12T07:07:25;53.20;;;24.77;;
67053;SDS011;53960;51.826;5.850;2022-09-12T07:09:50;53.83;;;25.43;;
67053;SDS011;53960;51.826;5.850;2022-09-12T07:12:15;55.10;;;26.00;;
67053;SDS011;53960;51.826;5.850;2022-09-12T07:14:41;54.93;;;25.87;;
67053;SDS011;53960;51.826;5.850;2022-09-12T07:17:06;51.90;;;24.87;;
67053;SDS011;53960;51.826;5.850;2022-09-12T07:19:32;48.50;;;24.95;;
67053;SDS011;53960;51.826;5.850;2022-09-12T07:21:58;48.92;;;24.70;;
67053;SDS011;53960;51.826;5.850;2022-09-12T07:24:23;51.40;;;24.97;;
67053;SDS011;53960;51.826;5.850;2022-09-12T07:26:48;46.07;;;23.30;;
67053;SDS011;53960;51.826;5.850;2022-09-12T07:29:14;42.63;;;22.97;;
67053;SDS011;53960;51.826;5.850;2022-09-12T07:31:40;47.83;;;23.25;;
67053;SDS011;53960;51.826;5.850;2022-09-12T07:34:06;42.33;;;22.25;;
67053;SDS011;53960;51.826;5.850;2022-09-12T07:36:31;43.60;;;21.77;;
67053;SDS011;53960;51.826;5.850;2022-09-12T07:38:57;43.77;;;22.60;;
67053;SDS011;53960;51.826;5.850;2022-09-12T07:41:24;41.30;;;22.00;;
67053;SDS011;53960;51.826;5.850;2022-09-12T07:43:51;44.70;;;23.17;;
67053;SDS011;53960;51.826;5.850;2022-09-12T07:46:18;39.85;;;20.70;;
67053;SDS011;53960;51.826;5.850;2022-09-12T07:48:43;42.20;;;21.57;;
67053;SDS011;53960;51.826;5.850;2022-09-12T07:51:10;44.33;;;22.48;;
67053;SDS011;53960;51.826;5.850;2022-09-12T07:53:37;40.78;;;22.00;;
67053;SDS011;53960;51.826;5.850;2022-09-12T07:56:04;39.73;;;21.30;;
67053;SDS011;53960;51.826;5.850;2022-09-12T07:58:31;42.05;;;21.42;;
67053;SDS011;53960;51.826;5.850;2022-09-12T08:01:02;37.20;;;20.55;;
67053;SDS011;53960;51.826;5.850;2022-09-12T08:03:38;41.40;;;21.90;;
67053;SDS011;53960;51.826;5.850;2022-09-12T08:06:05;39.92;;;20.52;;
67053;SDS011;53960;51.826;5.850;2022-09-12T08:08:32;37.60;;;19.67;;
67053;SDS011;53960;51.826;5.850;2022-09-12T08:10:58;35.22;;;19.45;;
67053;SDS011;53960;51.826;5.850;2022-09-12T08:13:25;36.97;;;19.00;;
67053;SDS011;53960;51.826;5.850;2022-09-12T08:15:55;31.03;;;17.23;;
67053;SDS011;53960;51.826;5.850;2022-09-12T08:18:21;35.95;;;18.65;;
67053;SDS011;53960;51.826;5.850;2022-09-12T08:20:46;33.30;;;18.60;;
67053;SDS011;53960;51.826;5.850;2022-09-12T08:23:12;33.03;;;18.00;;
67053;SDS011;53960;51.826;5.850;2022-09-12T08:25:37;32.83;;;18.10;;
67053;SDS011;53960;51.826;5.850;2022-09-12T08:28:02;30.87;;;17.37;;
67053;SDS011;53960;51.826;5.850;2022-09-12T08:30:27;31.33;;;17.53;;
67053;SDS011;53960;51.826;5.850;2022-09-12T08:32:53;33.07;;;18.77;;
67053;SDS011;53960;51.826;5.850;2022-09-12T08:35:18;31.97;;;17.67;;
67053;SDS011;53960;51.826;5.850;2022-09-12T08:37:44;31.37;;;18.13;;
67053;SDS011;53960;51.826;5.850;2022-09-12T08:40:13;32.22;;;18.70;;
67053;SDS011;53960;51.826;5.850;2022-09-12T08:42:51;31.40;;;17.63;;
67053;SDS011;53960;51.826;5.850;2022-09-12T08:45:45;35.53;;;18.08;;
67053;SDS011;53960;51.826;5.850;2022-09-12T08:48:32;34.53;;;17.17;;
67053;SDS011;53960;51.826;5.850;2022-09-12T08:50:58;32.00;;;17.17;;
67053;SDS011;53960;51.826;5.850;2022-09-12T08:53:24;33.42;;;18.55;;
67053;SDS011;53960;51.826;5.850;2022-09-12T08:55:55;35.50;;;19.48;;
67053;SDS011;53960;51.826;5.850;2022-09-12T08:58:23;32.50;;;18.75;;
67053;SDS011;53960;51.826;5.850;2022-09-12T09:00:57;31.80;;;17.67;;
67053;SDS011;53960;51.826;5.850;2022-09-12T09:06:39;35.42;;;17.17;;
67053;SDS011;53960;51.826;5.850;2022-09-12T09:09:33;27.95;;;16.67;;
67053;SDS011;53960;51.826;5.850;2022-09-12T09:12:18;28.52;;;16.55;;
67053;SDS011;53960;51.826;5.850;2022-09-12T09:17:41;27.17;;;16.60;;
67053;SDS011;53960;51.826;5.850;2022-09-12T09:22:53;30.35;;;16.98;;
67053;SDS011;53960;51.826;5.850;2022-09-12T09:25:32;29.38;;;16.27;;
67053;SDS011;53960;51.826;5.850;2022-09-12T09:28:06;29.75;;;16.73;;
67053;SDS011;53960;51.826;5.850;2022-09-12T09:30:53;25.37;;;15.10;;
67053;SDS011;53960;51.826;5.850;2022-09-12T09:33:23;25.42;;;15.88;;
67053;SDS011;53960;51.826;5.850;2022-09-12T09:38:51;27.23;;;15.60;;
67053;SDS011;53960;51.826;5.850;2022-09-12T09:44:29;26.50;;;14.73;;
67053;SDS011;53960;51.826;5.850;2022-09-12T09:46:56;23.08;;;14.05;;
67053;SDS011;53960;51.826;5.850;2022-09-12T09:49:25;23.45;;;13.95;;
67053;SDS011;53960;51.826;5.850;2022-09-12T09:51:53;23.10;;;13.50;;
67053;SDS011;53960;51.826;5.850;2022-09-12T09:54:23;23.07;;;13.97;;
67053;SDS011;53960;51.826;5.850;2022-09-12T09:56:52;21.35;;;13.57;;
67053;SDS011;53960;51.826;5.850;2022-09-12T09:59:18;20.40;;;12.70;;
67053;SDS011;53960;51.826;5.850;2022-09-12T10:01:51;21.45;;;13.18;;
67053;SDS011;53960;51.826;5.850;2022-09-12T10:04:25;22.95;;;13.32;;
67053;SDS011;53960;51.826;5.850;2022-09-12T10:06:57;20.73;;;13.38;;
67053;SDS011;53960;51.826;5.850;2022-09-12T10:09:27;20.70;;;12.70;;
67053;SDS011;53960;51.826;5.850;2022-09-12T10:11:56;20.25;;;12.25;;
67053;SDS011;53960;51.826;5.850;2022-09-12T10:14:36;20.15;;;12.68;;
67053;SDS011;53960;51.826;5.850;2022-09-12T10:19:52;19.73;;;12.13;;
67053;SDS011;53960;51.826;5.850;2022-09-12T10:22:19;18.97;;;11.50;;
67053;SDS011;53960;51.826;5.850;2022-09-12T10:24:48;18.60;;;11.40;;
67053;SDS011;53960;51.826;5.850;2022-09-12T10:27:23;18.33;;;11.40;;
67053;SDS011;53960;51.826;5.850;2022-09-12T10:29:54;21.23;;;11.38;;
67053;SDS011;53960;51.826;5.850;2022-09-12T10:32:25;19.13;;;11.77;;
67053;SDS011;53960;51.826;5.850;2022-09-12T10:34:55;16.13;;;9.93;;
67053;SDS011;53960;51.826;5.850;2022-09-12T10:37:29;17.55;;;10.63;;
67053;SDS011;53960;51.826;5.850;2022-09-12T10:39:57;15.30;;;9.30;;
67053;SDS011;53960;51.826;5.850;2022-09-12T10:45:27;14.77;;;9.03;;
67053;SDS011;53960;51.826;5.850;2022-09-12T10:47:55;16.45;;;9.98;;
67053;SDS011;53960;51.826;5.850;2022-09-12T10:50:40;15.60;;;8.85;;
67053;SDS011;53960;51.826;5.850;2022-09-12T10:55:49;14.38;;;7.78;;
67053;SDS011;53960;51.826;5.850;2022-09-12T10:58:35;15.13;;;9.07;;
67053;SDS011;53960;51.826;5.850;2022-09-12T11:09:49;13.77;;;7.82;;
67053;SDS011;53960;51.826;5.850;2022-09-12T11:12:33;13.40;;;6.90;;
67053;SDS011;53960;51.826;5.850;2022-09-12T11:15:15;14.55;;;7.10;;
67053;SDS011;53960;51.826;5.850;2022-09-12T11:17:59;12.88;;;7.32;;
67053;SDS011;53960;51.826;5.850;2022-09-12T11:26:19;11.73;;;6.80;;
67053;SDS011;53960;51.826;5.850;2022-09-12T11:34:08;12.88;;;6.45;;
67053;SDS011;53960;51.826;5.850;2022-09-12T11:39:27;13.33;;;6.70;;
67053;SDS011;53960;51.826;5.850;2022-09-12T11:42:04;12.70;;;6.80;;
67053;SDS011;53960;51.826;5.850;2022-09-12T11:44:38;13.52;;;6.75;;
67053;SDS011;53960;51.826;5.850;2022-09-12T11:47:09;13.52;;;6.65;;
67053;SDS011;53960;51.826;5.850;2022-09-12T11:54:36;11.35;;;6.10;;
67053;SDS011;53960;51.826;5.850;2022-09-12T11:57:13;9.82;;;5.03;;
67053;SDS011;53960;51.826;5.850;2022-09-12T11:59:47;9.27;;;5.22;;
67053;SDS011;53960;51.826;5.850;2022-09-12T12:02:19;9.38;;;4.55;;
67053;SDS011;53960;51.826;5.850;2022-09-12T12:07:54;11.43;;;5.30;;
67053;SDS011;53960;51.826;5.850;2022-09-12T12:10:23;9.27;;;4.78;;
67053;SDS011;53960;51.826;5.850;2022-09-12T12:12:52;12.50;;;5.20;;
67053;SDS011;53960;51.826;5.850;2022-09-12T12:15:18;10.60;;;4.50;;
67053;SDS011;53960;51.826;5.850;2022-09-12T12:17:45;11.17;;;5.50;;
67053;SDS011;53960;51.826;5.850;2022-09-12T12:20:39;10.70;;;5.03;;
67053;SDS011;53960;51.826;5.850;2022-09-12T12:23:04;9.80;;;5.00;;
67053;SDS011;53960;51.826;5.850;2022-09-12T12:25:40;11.70;;;5.63;;
67053;SDS011;53960;51.826;5.850;2022-09-12T12:31:08;11.00;;;5.70;;
67053;SDS011;53960;51.826;5.850;2022-09-12T12:36:04;11.75;;;5.00;;
67053;SDS011;53960;51.826;5.850;2022-09-12T12:38:39;10.52;;;4.75;;
67053;SDS011;53960;51.826;5.850;2022-09-12T12:43:45;9.83;;;4.97;;
67053;SDS011;53960;51.826;5.850;2022-09-12T12:46:13;10.98;;;5.53;;
67053;SDS011;53960;51.826;5.850;2022-09-12T12:56:59;10.20;;;4.83;;
67053;SDS011;53960;51.826;5.850;2022-09-12T12:59:26;11.35;;;5.25;;
67053;SDS011;53960;51.826;5.850;2022-09-12T13:01:52;11.15;;;5.25;;
67053;SDS011;53960;51.826;5.850;2022-09-12T13:04:22;10.13;;;4.80;;
67053;SDS011;53960;51.826;5.850;2022-09-12T13:07:01;11.00;;;4.60;;
67053;SDS011;53960;51.826;5.850;2022-09-12T13:12:07;8.40;;;4.40;;
67053;SDS011;53960;51.826;5.850;2022-09-12T13:17:05;11.17;;;5.10;;
67053;SDS011;53960;51.826;5.850;2022-09-12T13:19:32;8.80;;;4.82;;
67053;SDS011;53960;51.826;5.850;2022-09-12T13:22:02;9.13;;;4.67;;
67053;SDS011;53960;51.826;5.850;2022-09-12T13:24:29;9.45;;;4.78;;
67053;SDS011;53960;51.826;5.850;2022-09-12T13:26:55;10.50;;;5.22;;
67053;SDS011;53960;51.826;5.850;2022-09-12T13:29:22;9.90;;;5.03;;
67053;SDS011;53960;51.826;5.850;2022-09-12T13:31:53;9.67;;;4.60;;
67053;SDS011;53960;51.826;5.850;2022-09-12T13:34:24;8.60;;;4.43;;
67053;SDS011;53960;51.826;5.850;2022-09-12T13:37:09;10.00;;;4.38;;
67053;SDS011;53960;51.826;5.850;2022-09-12T13:45:11;9.17;;;4.17;;
67053;SDS011;53960;51.826;5.850;2022-09-12T13:47:46;10.68;;;3.85;;
67053;SDS011;53960;51.826;5.850;2022-09-12T13:50:16;8.90;;;3.22;;
67053;SDS011;53960;51.826;5.850;2022-09-12T13:53:04;7.30;;;3.03;;
67053;SDS011;53960;51.826;5.850;2022-09-12T13:55:35;7.85;;;3.42;;
67053;SDS011;53960;51.826;5.850;2022-09-12T13:58:05;8.40;;;3.93;;
67053;SDS011;53960;51.826;5.850;2022-09-12T14:00:39;10.68;;;4.35;;
67053;SDS011;53960;51.826;5.850;2022-09-12T14:03:23;8.53;;;4.40;;
67053;SDS011;53960;51.826;5.850;2022-09-12T14:06:09;8.55;;;4.00;;
67053;SDS011;53960;51.826;5.850;2022-09-12T14:08:37;9.35;;;3.85;;
67053;SDS011;53960;51.826;5.850;2022-09-12T14:11:15;9.10;;;3.80;;
67053;SDS011;53960;51.826;5.850;2022-09-12T14:13:46;9.45;;;3.75;;
67053;SDS011;53960;51.826;5.850;2022-09-12T14:16:12;10.43;;;3.80;;
67053;SDS011;53960;51.826;5.850;2022-09-12T14:18:40;8.88;;;3.70;;
67053;SDS011;53960;51.826;5.850;2022-09-12T14:21:10;8.10;;;3.25;;
67053;SDS011;53960;51.826;5.850;2022-09-12T14:23:44;9.13;;;3.50;;
67053;SDS011;53960;51.826;5.850;2022-09-12T14:26:12;9.02;;;3.90;;
67053;SDS011;53960;51.826;5.850;2022-09-12T14:28:40;9.88;;;4.28;;
67053;SDS011;53960;51.826;5.850;2022-09-12T14:33:52;8.70;;;3.15;;
67053;SDS011;53960;51.826;5.850;2022-09-12T14:36:32;8.10;;;3.30;;
67053;SDS011;53960;51.826;5.850;2022-09-12T14:39:00;7.35;;;3.25;;
67053;SDS011;53960;51.826;5.850;2022-09-12T14:41:29;7.50;;;3.45;;
67053;SDS011;53960;51.826;5.850;2022-09-12T14:43:58;8.20;;;3.57;;
67053;SDS011;53960;51.826;5.850;2022-09-12T14:46:27;8.75;;;3.28;;
67053;SDS011;53960;51.826;5.850;2022-09-12T14:48:59;7.53;;;3.22;;
67053;SDS011;53960;51.826;5.850;2022-09-12T14:51:51;8.10;;;3.45;;
67053;SDS011;53960;51.826;5.850;2022-09-12T14:59:35;8.73;;;3.88;;
67053;SDS011;53960;51.826;5.850;2022-09-12T15:04:41;9.10;;;3.88;;
67053;SDS011;53960;51.826;5.850;2022-09-12T15:07:14;8.18;;;3.55;;
67053;SDS011;53960;51.826;5.850;2022-09-12T15:09:47;9.07;;;3.90;;
67053;SDS011;53960;51.826;5.850;2022-09-12T15:12:13;8.90;;;3.65;;
67053;SDS011;53960;51.826;5.850;2022-09-12T15:14:38;9.77;;;4.70;;
67053;SDS011;53960;51.826;5.850;2022-09-12T15:17:04;9.83;;;5.03;;
67053;SDS011;53960;51.826;5.850;2022-09-12T15:19:29;9.95;;;4.63;;
67053;SDS011;53960;51.826;5.850;2022-09-12T15:21:55;10.63;;;4.10;;
67053;SDS011;53960;51.826;5.850;2022-09-12T15:24:20;9.33;;;4.17;;
67053;SDS011;53960;51.826;5.850;2022-09-12T15:26:45;10.90;;;4.50;;
67053;SDS011;53960;51.826;5.850;2022-09-12T15:29:10;10.43;;;4.80;;
67053;SDS011;53960;51.826;5.850;2022-09-12T15:31:36;9.52;;;4.13;;
67053;SDS011;53960;51.826;5.850;2022-09-12T15:34:04;10.27;;;4.20;;
67053;SDS011;53960;51.826;5.850;2022-09-12T15:36:29;8.93;;;3.97;;
67053;SDS011;53960;51.826;5.850;2022-09-12T15:38:54;8.23;;;3.63;;
67053;SDS011;53960;51.826;5.850;2022-09-12T15:43:47;10.82;;;4.63;;
67053;SDS011;53960;51.826;5.850;2022-09-12T15:46:13;8.82;;;4.43;;
67053;SDS011;53960;51.826;5.850;2022-09-12T15:48:41;9.68;;;4.63;;
67053;SDS011;53960;51.826;5.850;2022-09-12T15:51:14;11.27;;;4.97;;
67053;SDS011;53960;51.826;5.850;2022-09-12T15:53:41;9.18;;;4.80;;
67053;SDS011;53960;51.826;5.850;2022-09-12T15:56:07;9.75;;;4.25;;
67053;SDS011;53960;51.826;5.850;2022-09-12T15:58:32;8.83;;;4.10;;
67053;SDS011;53960;51.826;5.850;2022-09-12T16:00:58;11.07;;;4.33;;
67053;SDS011;53960;51.826;5.850;2022-09-12T16:03:25;9.98;;;4.20;;
67053;SDS011;53960;51.826;5.850;2022-09-12T16:05:58;8.60;;;3.70;;
67053;SDS011;53960;51.826;5.850;2022-09-12T16:08:25;10.25;;;4.35;;
67053;SDS011;53960;51.826;5.850;2022-09-12T16:10:55;11.13;;;5.50;;
67053;SDS011;53960;51.826;5.850;2022-09-12T16:13:22;10.38;;;4.95;;
67053;SDS011;53960;51.826;5.850;2022-09-12T16:15:48;9.55;;;4.10;;
67053;SDS011;53960;51.826;5.850;2022-09-12T16:18:13;10.97;;;4.33;;
67053;SDS011;53960;51.826;5.850;2022-09-12T16:20:39;9.00;;;4.35;;
67053;SDS011;53960;51.826;5.850;2022-09-12T16:23:05;7.97;;;4.20;;
67053;SDS011;53960;51.826;5.850;2022-09-12T16:25:32;11.88;;;4.25;;
67053;SDS011;53960;51.826;5.850;2022-09-12T16:27:58;9.93;;;4.30;;
67053;SDS011;53960;51.826;5.850;2022-09-12T16:30:25;10.23;;;5.05;;
67053;SDS011;53960;51.826;5.850;2022-09-12T16:32:51;10.40;;;4.30;;
67053;SDS011;53960;51.826;5.850;2022-09-12T16:35:16;10.43;;;4.30;;
67053;SDS011;53960;51.826;5.850;2022-09-12T16:37:41;12.40;;;4.10;;
67053;SDS011;53960;51.826;5.850;2022-09-12T16:40:07;9.43;;;4.10;;
67053;SDS011;53960;51.826;5.850;2022-09-12T16:42:33;11.63;;;4.10;;
67053;SDS011;53960;51.826;5.850;2022-09-12T16:44:58;9.20;;;4.30;;
67053;SDS011;53960;51.826;5.850;2022-09-12T16:47:24;9.90;;;3.93;;
67053;SDS011;53960;51.826;5.850;2022-09-12T16:49:49;8.20;;;3.57;;
67053;SDS011;53960;51.826;5.850;2022-09-12T16:52:15;8.70;;;4.07;;
67053;SDS011;53960;51.826;5.850;2022-09-12T16:54:41;7.80;;;4.10;;
67053;SDS011;53960;51.826;5.850;2022-09-12T16:57:08;9.10;;;3.45;;
67053;SDS011;53960;51.826;5.850;2022-09-12T16:59:34;8.32;;;4.13;;
67053;SDS011;53960;51.826;5.850;2022-09-12T17:01:59;9.43;;;4.03;;
67053;SDS011;53960;51.826;5.850;2022-09-12T17:04:24;10.80;;;4.07;;